Logo



News | Standings | Raids | Events | Item Values | Item History | Summary | Stats
Register | Login

Pare Bellum: Kalidas
Earned: 199.50 Spent: 205.00 Adjustment: 0.00 Current: -5.50
Last 30 Days: 0% of raids Last 60 Days: 0% of raids Last 90 Days: 0% of raids Lifetime (05/23/07 - 11/20/07): 34% of raids

Raid Attendance History
Date Name Note Earned Current
11/20/07 Kaelthas 155/25 6.25 199.50
11/20/07 Solarian 20/25 0.75 193.25
11/20/07 Void Reaver 85/26 1.75 192.50
11/20/07 Alar 20/25 0.75 190.75
11/18/07 Void Reaver 90/30 3.00 190.00
11/18/07 Vashj 110/30 3.75 187.00
11/13/07 Alar 40/26 1.50 183.25
11/08/07 Kaelthas 120/29 4.25 181.75
11/07/07 Solarian 25/27 1.00 177.50
11/07/07 Void Reaver 80/27 3.00 176.50
11/07/07 Alar 35/27 1.25 173.50
11/05/07 Vashj 100/25 4.00 172.25
10/23/07 Alar 50/25 2.00 168.25
10/22/07 Vashj 80/29 2.75 166.25
10/22/07 Leotheras 90/29 3.00 163.50
10/21/07 Karathress 80/26 3.00 160.50
10/18/07 Morogrim Tidewalker 30/26 1.25 157.50
10/18/07 Lurker 45/26 1.75 156.25
10/18/07 Hydross 45/26 1.75 154.50
10/15/07 Kaelthas 100/25 4.00 152.75
10/14/07 Vashj 90/27 3.25 148.75
10/11/07 Solarian 35/25 1.50 145.50
10/11/07 Void Reaver 70/26 2.75 144.00
10/11/07 Alar 55/25 2.25 141.25
10/10/07 Leotheras 90/25 3.50 139.00
10/10/07 Karathress 80/26 3.00 135.50
10/10/07 Morogrim Tidewalker 15/26 0.50 132.50
10/10/07 Lurker 35/26 1.25 132.00
10/10/07 Hydross 20/26 0.75 130.75
10/01/07 Kaelthas 120/26 4.50 130.00
10/01/07 Vashj 110/28 4.00 125.50
09/30/07 Void Reaver 95/27 3.50 121.50
09/30/07 Solarian 40/27 1.50 118.00
09/30/07 Alar 35/28 1.25 116.50
09/30/07 Leotheras 100/27 3.75 115.25
09/27/07 Karathress 70/28 2.50 111.50
09/27/07 Morogrim Tidewalker 45/28 1.50 109.00
09/26/07 Lurker 25/28 1.00 107.50
09/26/07 Hydross 45/28 1.50 106.50
09/11/07 Kaelthas 155/33 4.75 105.00
09/11/07 Void Reaver 65/32 2.00 100.25
09/11/07 Solarian 0/32 0.00 98.25
09/11/07 Alar 60/32 2.00 98.25
09/10/07 Vashj 110/33 3.25 96.25
09/10/07 Leotheras 90/33 2.75 93.00
09/09/07 Karathress 80/32 2.50 90.25
09/09/07 Morogrim Tidewalker 55/32 1.75 87.75
09/09/07 Lurker 35/32 1.00 86.00
09/09/07 Hydross 40/31 1.25 85.00
09/03/07 Kaelthas 115/25 4.50 83.75
08/30/07 Void Reaver 70/30 2.25 79.25
08/30/07 Solarian 30/30 1.00 77.00
08/30/07 Alar 50/32 1.50 76.00
08/30/07 Vashj 120/33 3.75 74.50
08/29/07 Karathress 95/30 3.25 70.75
08/29/07 Leotheras 85/30 2.75 67.50
08/28/07 Morogrim Tidewalker 20/30 0.75 64.75
08/28/07 Lurker 30/32 1.00 64.00
08/28/07 Hydross 15/32 0.50 63.00
08/27/07 Kaelthas 110/29 3.75 62.50
08/26/07 Vashj 170/29 5.75 58.75
08/07/07 Void Reaver 70/35 2.00 53.00
08/07/07 Alar 20/35 0.50 51.00
08/06/07 Hourly Progress   0.75 50.50
08/06/07 Hourly Progress   0.75 49.75
08/06/07 Hourly Progress   0.75 49.00
08/06/07 Hourly Progress   0.75 48.25
08/05/07 Hourly Progress   0.75 47.50
08/05/07 Hourly Progress   0.75 46.75
08/05/07 Hourly Progress   0.75 46.00
08/05/07 Hourly Progress   0.75 45.25
08/05/07 On-time   0.75 44.50
08/01/07 Void Reaver 60/35 1.75 43.75
08/01/07 Solarian 45/35 1.25 42.00
08/01/07 Alar 25/35 0.75 40.75
08/01/07 Vashj 125/35 3.50 40.00
07/31/07 Leotheras 85/32 2.75 36.50
07/31/07 Karathress 80/32 2.50 33.75
07/31/07 Morogrim Tidewalker 25/32 0.75 31.25
07/31/07 Lurker 35/32 1.00 30.50
07/31/07 Hydross 50/30 1.75 29.50
07/30/07 Hourly Progress   0.75 27.75
07/30/07 Hourly Progress   0.75 27.00
07/30/07 Vashj 90/33 2.75 26.25
07/29/07 On-time   0.75 23.50
07/26/07 Solarian 40/30 1.25 22.75
07/26/07 Void Reaver 85/27 3.25 21.50
07/25/07 Alar 30/28 1.00 18.25
07/25/07 Morogrim Tidewalker 30/27 1.00 17.25
07/25/07 Karathress 75/30 2.50 16.25
07/24/07 Leotheras 90/28 3.25 13.75
07/24/07 Lurker 60/27 2.25 10.50
07/24/07 Hydross 20/27 0.75 8.25
07/24/07 On-time   0.75 7.50
07/06/07 Leotheras 75/28 2.75 6.75
07/05/07 Lurker 15/28 0.50 4.00
07/05/07 Hydross 35/28 1.25 3.50
07/05/07 On-time   0.75 2.25
05/24/07 On-time   0.75 1.50
05/23/07 On-time   0.75 0.75
... found 100 attended raid(s) / 100 per page

Item Purchase History
Date Name Raid Spent Current
10/10/07 Tempest-Strider Boots Lurker 25.00 205.00
09/30/07 Pauldrons of the Vanquished Champion Void Reaver 30.00 180.00
09/27/07 Mantle of the Tireless Tracker Morogrim Tidewalker 20.00 150.00
09/26/07 Blackfathom Warbands Hydross 20.00 130.00
09/11/07 Sunhawk Leggings Kaelthas 20.00 110.00
09/11/07 Pauldrons of the Vanquished Champion Void Reaver 30.00 90.00
07/31/07 Gloves of the Vanquished Champion Leotheras 30.00 60.00
07/31/07 Leggings of the Vanquished Champion Karathress 30.00 30.00
... found 8 purchased item(s) / 100 per page

Individual Adjustment History
Date Reason Adjustment
... found 0 individual adjustment(s)

Attendance by Event
Event Percent
Hourly Progress
10 (10%)
Hydross
8 (44%)
Karathress
7 (47%)
Leotheras
8 (53%)
Lurker
8 (47%)
Morogrim Tidewalker
7 (44%)
On-time
6 (15%)
Solarian
8 (53%)
Vashj
10 (83%)
Void Reaver
10 (53%)
 

Powered by EQdkp 1.3.2
© 2003 The EQdkp Project Team